createdAt,value
2018-03-27T05:12:14.220Z,18.40
2018-03-27T05:14:40.441Z,18.40
2018-03-27T05:17:06.717Z,18.40
2018-03-27T05:19:32.950Z,18.40
2018-03-27T05:21:59.193Z,18.40
2018-03-27T05:24:25.419Z,18.30
2018-03-27T05:26:51.678Z,18.30
2018-03-27T05:29:18.013Z,18.20
2018-03-27T05:31:44.231Z,18.10
2018-03-27T05:34:10.482Z,18.00
2018-03-27T05:36:36.725Z,17.90
2018-03-27T05:39:02.982Z,18.00
2018-03-27T05:41:29.310Z,18.00
2018-03-27T05:43:55.654Z,18.00
2018-03-27T05:46:21.876Z,18.10
2018-03-27T05:48:48.124Z,18.00
2018-03-27T05:51:14.389Z,18.00
2018-03-27T05:53:40.658Z,18.10
2018-03-27T05:56:06.924Z,18.10
2018-03-27T05:58:33.161Z,18.10
2018-03-27T06:00:59.396Z,18.20
2018-03-27T06:03:26.355Z,18.20
2018-03-27T06:05:52.620Z,18.20
2018-03-27T06:08:18.882Z,18.20
2018-03-27T06:10:45.165Z,18.20
2018-03-27T06:13:11.422Z,18.20
2018-03-27T06:15:38.367Z,18.20
2018-03-27T06:18:04.702Z,18.20
2018-03-27T06:20:30.932Z,18.20
2018-03-27T06:22:57.191Z,18.20
2018-03-27T06:25:23.427Z,18.20
2018-03-27T06:27:50.445Z,18.30
2018-03-27T06:30:16.978Z,18.30
2018-03-27T06:32:43.420Z,18.30
2018-03-27T06:35:09.653Z,18.30
2018-03-27T06:37:35.886Z,18.30
2018-03-27T06:40:02.122Z,18.30
2018-03-27T06:42:28.379Z,18.30
2018-03-27T06:44:54.605Z,18.30
2018-03-27T06:47:20.901Z,18.30
2018-03-27T06:49:47.149Z,18.30
2018-03-27T06:52:13.374Z,18.30
2018-03-27T06:54:40.706Z,18.30
2018-03-27T06:57:07.522Z,18.30
2018-03-27T06:59:33.886Z,18.30
2018-03-27T07:02:00.871Z,18.30
2018-03-27T07:04:27.231Z,18.30
2018-03-27T07:06:53.526Z,18.30
2018-03-27T07:09:19.769Z,18.30
2018-03-27T07:11:46.763Z,18.30
2018-03-27T07:14:13.114Z,18.30
2018-03-27T07:16:39.334Z,18.30
2018-03-27T07:19:05.802Z,18.40
2018-03-27T07:21:32.035Z,18.40
2018-03-27T07:23:58.259Z,18.40
2018-03-27T07:26:24.516Z,18.40
2018-03-27T07:28:50.743Z,18.40
2018-03-27T07:31:17.011Z,18.40
2018-03-27T07:33:44.019Z,18.40
2018-03-27T07:36:10.270Z,18.40
2018-03-27T07:38:36.511Z,18.40
2018-03-27T07:41:02.754Z,18.40
2018-03-27T07:43:29.030Z,18.40
2018-03-27T07:45:55.263Z,18.40
2018-03-27T07:48:21.489Z,18.40
2018-03-27T07:50:48.508Z,18.40
2018-03-27T07:53:15.091Z,18.40
2018-03-27T07:55:41.782Z,18.40
2018-03-27T07:58:08.004Z,18.40
2018-03-27T08:00:34.983Z,18.40
2018-03-27T08:03:01.231Z,18.50
2018-03-27T08:05:27.474Z,18.40
2018-03-27T08:07:54.529Z,18.40
2018-03-27T08:10:21.511Z,18.50
2018-03-27T08:12:47.728Z,18.40
2018-03-27T08:15:13.971Z,18.50
2018-03-27T08:17:40.205Z,18.50
2018-03-27T08:20:06.539Z,18.50
2018-03-27T08:22:32.800Z,18.50
2018-03-27T08:24:59.026Z,18.50
2018-03-27T08:27:25.248Z,18.50
2018-03-27T08:29:51.503Z,18.50
2018-03-27T08:32:17.790Z,18.50
2018-03-27T08:34:44.033Z,18.50
2018-03-27T08:37:10.257Z,18.50
2018-03-27T08:39:37.296Z,18.50
2018-03-27T08:42:03.523Z,18.50
2018-03-27T08:44:29.803Z,18.50
2018-03-27T08:46:56.027Z,18.50
2018-03-27T08:49:23.034Z,18.50
2018-03-27T08:51:49.268Z,18.50
2018-03-27T08:54:15.510Z,18.50
2018-03-27T08:56:41.795Z,18.50
2018-03-27T08:59:08.864Z,18.50
2018-03-27T09:01:35.070Z,18.50
2018-03-27T09:04:02.045Z,18.50
2018-03-27T09:06:28.262Z,18.60
2018-03-27T09:08:55.342Z,18.60
2018-03-27T09:11:21.587Z,18.60
2018-03-27T09:13:47.841Z,18.60
2018-03-27T09:16:14.583Z,18.60
2018-03-27T09:18:40.838Z,18.60
2018-03-27T09:21:07.107Z,18.60
2018-03-27T09:23:33.343Z,18.60
2018-03-27T09:26:00.285Z,18.60
2018-03-27T09:28:27.275Z,18.60
2018-03-27T09:30:53.503Z,18.60
2018-03-27T09:33:19.911Z,18.60
2018-03-27T09:35:46.177Z,18.60
2018-03-27T09:38:12.738Z,18.60
2018-03-27T09:40:38.981Z,18.60
2018-03-27T09:43:05.222Z,18.60
2018-03-27T09:45:31.516Z,18.60
2018-03-27T09:47:57.743Z,18.70
2018-03-27T09:50:24.175Z,18.70
2018-03-27T09:52:50.422Z,18.60
2018-03-27T09:55:16.664Z,18.70
2018-03-27T09:57:43.187Z,18.70
2018-03-27T10:00:10.162Z,18.70
2018-03-27T10:02:36.387Z,18.70
2018-03-27T10:05:02.620Z,18.70
2018-03-27T10:07:28.847Z,18.70
2018-03-27T10:09:55.862Z,18.70
2018-03-27T10:12:22.102Z,18.70
2018-03-27T10:14:48.361Z,18.70
2018-03-27T10:17:14.605Z,18.70
2018-03-27T10:19:40.845Z,18.70
2018-03-27T10:22:07.151Z,18.70
2018-03-27T10:24:34.163Z,18.70
2018-03-27T10:27:00.449Z,18.70
2018-03-27T10:29:26.672Z,18.70
2018-03-27T10:31:53.040Z,18.70
2018-03-27T10:34:19.471Z,18.70
2018-03-27T10:36:45.698Z,18.70
2018-03-27T10:39:12.047Z,18.70
2018-03-27T10:41:38.276Z,18.70
2018-03-27T10:44:04.497Z,18.70
2018-03-27T10:46:31.526Z,18.70
2018-03-27T10:48:58.495Z,18.70
2018-03-27T10:51:24.711Z,18.70
2018-03-27T10:53:50.942Z,18.70
2018-03-27T10:56:17.186Z,18.80
2018-03-27T10:58:43.870Z,18.80
2018-03-27T11:01:10.300Z,18.80
2018-03-27T11:03:36.538Z,18.80
2018-03-27T11:06:03.143Z,18.80
2018-03-27T11:08:29.369Z,18.80
2018-03-27T11:10:55.630Z,18.80
2018-03-27T11:13:23.218Z,18.80
2018-03-27T11:15:49.457Z,18.80
2018-03-27T11:18:15.683Z,18.70
2018-03-27T11:20:41.929Z,18.70
2018-03-27T11:23:08.240Z,18.80
2018-03-27T11:25:34.488Z,18.80
2018-03-27T11:28:00.713Z,18.70
2018-03-27T11:30:27.721Z,18.70
2018-03-27T11:32:54.536Z,18.70
2018-03-27T11:35:20.812Z,18.80
2018-03-27T11:37:47.062Z,18.80
2018-03-27T11:40:13.281Z,18.80
2018-03-27T11:42:39.534Z,18.70
2018-03-27T11:45:05.795Z,18.80
2018-03-27T11:47:32.070Z,18.70
2018-03-27T11:49:58.291Z,18.70
2018-03-27T11:52:24.605Z,18.70
2018-03-27T11:54:50.843Z,18.70
2018-03-27T11:57:17.063Z,18.70
2018-03-27T11:59:43.315Z,18.70
2018-03-27T12:02:09.560Z,18.70
2018-03-27T12:04:35.813Z,18.70
2018-03-27T12:07:02.051Z,18.70
2018-03-27T12:09:28.358Z,18.70
2018-03-27T12:11:54.623Z,18.80
2018-03-27T12:14:20.879Z,18.70
2018-03-27T12:16:47.155Z,18.80
2018-03-27T12:19:13.388Z,18.80
2018-03-27T12:21:39.631Z,18.80
2018-03-27T12:24:06.048Z,18.80
2018-03-27T12:26:33.067Z,18.80
2018-03-27T12:28:59.317Z,18.80
2018-03-27T12:31:25.530Z,18.80
2018-03-27T12:33:51.770Z,18.80
2018-03-27T12:36:18.084Z,18.80
2018-03-27T12:38:44.298Z,18.80
2018-03-27T12:41:10.539Z,18.80
2018-03-27T12:43:36.791Z,18.80
2018-03-27T12:46:03.029Z,18.80
2018-03-27T12:48:29.282Z,18.80
2018-03-27T12:50:56.151Z,18.80
2018-03-27T12:53:22.374Z,18.80
2018-03-27T12:55:48.595Z,18.90
2018-03-27T12:58:14.821Z,18.90
2018-03-27T13:00:41.091Z,18.90
2018-03-27T13:03:08.100Z,18.90
2018-03-27T13:05:34.354Z,18.90
2018-03-27T13:08:00.608Z,18.90
2018-03-27T13:10:26.849Z,18.90
2018-03-27T13:12:53.963Z,18.90
2018-03-27T13:15:20.212Z,18.90
2018-03-27T13:17:46.441Z,18.90
2018-03-27T13:20:12.873Z,19.00
2018-03-27T13:22:39.098Z,19.00
2018-03-27T13:25:05.415Z,19.00
2018-03-27T13:27:32.343Z,19.00
2018-03-27T13:29:58.635Z,19.00
2018-03-27T13:32:25.610Z,19.00
2018-03-27T13:34:52.467Z,19.00
2018-03-27T13:37:19.498Z,19.00
2018-03-27T13:39:45.745Z,19.00
2018-03-27T13:42:13.329Z,19.00
2018-03-27T13:44:40.350Z,19.00
2018-03-27T13:47:06.605Z,19.00
2018-03-27T13:49:33.627Z,19.00
2018-03-27T13:51:59.899Z,19.00
2018-03-27T13:54:26.737Z,19.00
2018-03-27T13:56:52.963Z,19.00
2018-03-27T13:59:19.916Z,19.00
2018-03-27T14:01:46.178Z,19.00
2018-03-27T14:04:12.421Z,19.00
2018-03-27T14:06:38.667Z,19.00
2018-03-27T14:09:04.930Z,19.00
2018-03-27T14:11:31.184Z,19.00
2018-03-27T14:13:57.457Z,19.00
2018-03-27T14:16:23.683Z,19.00
2018-03-27T14:18:49.907Z,19.00
2018-03-27T14:21:16.931Z,19.00
2018-03-27T14:23:43.250Z,19.00
2018-03-27T14:26:09.487Z,19.00
2018-03-27T14:28:36.343Z,19.00
2018-03-27T14:31:02.613Z,19.00
2018-03-27T14:33:28.830Z,19.00
2018-03-27T14:35:55.055Z,19.00
2018-03-27T14:38:21.314Z,19.00
2018-03-27T14:40:47.566Z,19.00
2018-03-27T14:43:14.750Z,19.00
2018-03-27T14:45:41.171Z,19.00
2018-03-27T14:48:07.396Z,19.00
2018-03-27T14:50:33.651Z,19.00
2018-03-27T14:52:59.892Z,19.10
2018-03-27T14:55:26.135Z,19.10
2018-03-27T14:57:52.362Z,19.10
2018-03-27T15:00:18.591Z,19.20
2018-03-27T15:02:44.844Z,19.20
2018-03-27T15:05:11.068Z,19.10
2018-03-27T15:07:37.331Z,19.20
2018-03-27T15:10:03.601Z,19.20
2018-03-27T15:12:29.835Z,19.10
2018-03-27T15:14:56.116Z,19.20
2018-03-27T15:17:22.362Z,19.20
2018-03-27T15:19:48.593Z,19.10
2018-03-27T15:22:14.842Z,19.10
2018-03-27T15:24:41.095Z,19.00
2018-03-27T15:27:07.394Z,18.90
2018-03-27T15:29:33.641Z,18.80
2018-03-27T15:32:00.036Z,18.90
2018-03-27T15:34:26.288Z,18.90
2018-03-27T15:36:52.860Z,19.00
2018-03-27T15:39:19.142Z,19.00
2018-03-27T15:41:46.131Z,19.00
2018-03-27T15:44:12.382Z,19.00
2018-03-27T15:46:38.612Z,19.00
2018-03-27T15:49:05.114Z,19.00
2018-03-27T15:51:31.404Z,19.00
2018-03-27T15:53:57.629Z,19.00
2018-03-27T15:56:23.898Z,19.00
2018-03-27T15:58:50.150Z,19.00
2018-03-27T16:01:16.462Z,19.00
2018-03-27T16:03:42.703Z,19.00
2018-03-27T16:06:09.709Z,19.00
2018-03-27T16:08:35.941Z,19.00
2018-03-27T16:11:03.212Z,19.00
2018-03-27T16:13:29.482Z,19.00
2018-03-27T16:15:55.704Z,19.00
2018-03-27T16:18:21.945Z,19.00
2018-03-27T16:20:48.949Z,19.00
2018-03-27T16:23:15.401Z,19.00
2018-03-27T16:25:41.655Z,19.00
2018-03-27T16:28:07.947Z,19.00
2018-03-27T16:30:34.797Z,19.00
2018-03-27T16:33:01.635Z,19.00
2018-03-27T16:35:27.892Z,19.00
2018-03-27T16:37:54.163Z,19.00
2018-03-27T16:40:21.313Z,19.00
2018-03-27T16:42:47.803Z,18.90
2018-03-27T16:45:14.046Z,19.00
2018-03-27T16:47:40.515Z,19.00
2018-03-27T16:50:06.795Z,19.00
2018-03-27T16:52:33.042Z,19.00
2018-03-27T16:54:59.311Z,19.00
2018-03-27T16:57:25.618Z,19.00
2018-03-27T16:59:51.855Z,19.00
2018-03-27T17:02:18.142Z,19.10
2018-03-27T17:04:44.411Z,19.10
2018-03-27T17:07:10.669Z,19.10
2018-03-27T17:09:36.910Z,19.10
2018-03-27T17:12:03.435Z,19.20
2018-03-27T17:14:29.665Z,19.20
2018-03-27T17:16:56.696Z,19.10
2018-03-27T17:19:22.960Z,19.10
2018-03-27T17:21:49.980Z,19.10
2018-03-27T17:24:16.222Z,19.10
2018-03-27T17:26:42.443Z,19.10
2018-03-27T17:29:08.983Z,19.10
2018-03-27T17:31:35.211Z,19.10
2018-03-27T17:34:01.468Z,19.10
2018-03-27T17:36:27.728Z,19.10
2018-03-27T17:38:53.988Z,19.10
2018-03-27T17:41:20.264Z,19.10
2018-03-27T17:43:47.346Z,19.10
2018-03-27T17:46:13.572Z,19.10
2018-03-27T17:48:40.396Z,19.10
2018-03-27T17:51:06.636Z,19.10
2018-03-27T17:53:32.887Z,19.10
2018-03-27T17:55:59.885Z,19.10
2018-03-27T17:58:26.450Z,19.10
2018-03-27T18:00:52.708Z,19.10
2018-03-27T18:03:18.942Z,19.10
2018-03-27T18:05:45.968Z,19.10
2018-03-27T18:08:12.203Z,19.10
2018-03-27T18:10:38.538Z,19.10
2018-03-27T18:13:04.778Z,19.10
2018-03-27T18:15:31.365Z,19.10
2018-03-27T18:17:57.647Z,19.10
2018-03-27T18:20:23.870Z,19.10
2018-03-27T18:22:50.860Z,19.10
2018-03-27T18:25:17.394Z,19.10
2018-03-27T18:27:45.119Z,19.10
2018-03-27T18:30:11.473Z,19.10
2018-03-27T18:32:38.398Z,19.10
2018-03-27T18:35:05.282Z,19.10
2018-03-27T18:37:32.169Z,19.10
2018-03-27T18:39:58.625Z,19.10
2018-03-27T18:42:24.930Z,19.10
2018-03-27T18:44:51.179Z,19.10
2018-03-27T18:47:17.749Z,19.10
2018-03-27T18:49:44.074Z,19.10
2018-03-27T18:52:10.296Z,19.10
2018-03-27T18:54:36.551Z,19.10
2018-03-27T18:57:02.806Z,19.10
2018-03-27T18:59:29.908Z,19.10
2018-03-27T19:01:56.137Z,19.10
2018-03-27T19:04:22.389Z,19.10
2018-03-27T19:06:49.434Z,19.00
2018-03-27T19:09:16.427Z,19.00
2018-03-27T19:11:42.745Z,19.00
2018-03-27T19:14:08.995Z,19.00
2018-03-27T19:16:35.235Z,19.00
2018-03-27T19:19:01.537Z,19.00
2018-03-27T19:21:28.425Z,19.00
2018-03-27T19:23:54.667Z,19.10
2018-03-27T19:26:20.908Z,19.10
2018-03-27T19:28:47.161Z,19.10
2018-03-27T19:31:13.422Z,19.10
2018-03-27T19:33:39.649Z,19.10
2018-03-27T19:36:06.476Z,19.10
2018-03-27T19:38:33.342Z,19.10
2018-03-27T19:41:00.423Z,19.10
2018-03-27T19:43:27.121Z,19.10
2018-03-27T19:45:53.797Z,19.10
2018-03-27T19:48:20.254Z,19.10
2018-03-27T19:50:46.542Z,19.10
2018-03-27T19:53:12.826Z,19.10
2018-03-27T19:55:39.716Z,19.10
2018-03-27T19:58:05.960Z,19.10
2018-03-27T20:00:32.453Z,19.10
2018-03-27T20:02:59.037Z,19.10
2018-03-27T20:05:25.269Z,19.10
2018-03-27T20:07:51.533Z,19.10
2018-03-27T20:10:17.801Z,19.10
2018-03-27T20:12:44.023Z,19.10
2018-03-27T20:15:10.273Z,19.10
2018-03-27T20:17:36.509Z,19.10
2018-03-27T20:20:03.657Z,19.10
2018-03-27T20:22:29.913Z,19.10
2018-03-27T20:24:56.139Z,19.10
2018-03-27T20:27:22.366Z,19.10
2018-03-27T20:29:48.697Z,19.10
2018-03-27T20:32:14.952Z,19.00
2018-03-27T20:34:41.173Z,19.00
2018-03-27T20:37:07.425Z,19.00
2018-03-27T20:39:33.671Z,19.00
2018-03-27T20:41:59.976Z,19.00
2018-03-27T20:44:26.802Z,19.00
2018-03-27T20:46:53.024Z,19.00
2018-03-27T20:49:19.249Z,19.00
2018-03-27T20:51:45.489Z,19.00
2018-03-27T20:54:11.703Z,19.00
2018-03-27T20:56:37.978Z,19.00
2018-03-27T20:59:04.225Z,19.00
2018-03-27T21:01:30.459Z,19.00
2018-03-27T21:03:57.147Z,19.00
2018-03-27T21:06:23.376Z,19.00
2018-03-27T21:08:49.634Z,19.00
2018-03-27T21:11:16.630Z,19.00
2018-03-27T21:13:42.875Z,18.90
2018-03-27T21:16:09.146Z,18.90
2018-03-27T21:18:35.383Z,18.90
2018-03-27T21:21:01.658Z,18.90
2018-03-27T21:23:28.646Z,18.90
2018-03-27T21:25:54.875Z,18.90
2018-03-27T21:28:21.100Z,18.90
2018-03-27T21:30:47.343Z,18.90
2018-03-27T21:33:13.609Z,18.90
2018-03-27T21:35:39.828Z,18.90
2018-03-27T21:38:06.077Z,18.90
2018-03-27T21:40:32.304Z,18.90
2018-03-27T21:42:58.548Z,18.90
2018-03-27T21:45:24.804Z,18.90
2018-03-27T21:47:51.205Z,18.90
2018-03-27T21:50:17.738Z,18.90
2018-03-27T21:52:43.993Z,18.90
2018-03-27T21:55:10.234Z,18.90
2018-03-27T21:57:36.494Z,18.90
2018-03-27T22:00:03.493Z,18.90
2018-03-27T22:02:29.729Z,18.90
2018-03-27T22:04:55.973Z,18.90
2018-03-27T22:07:22.203Z,18.90
2018-03-27T22:09:48.464Z,18.90
2018-03-27T22:12:14.698Z,18.90
2018-03-27T22:14:41.584Z,18.90
2018-03-27T22:17:07.829Z,18.90
2018-03-27T22:19:34.887Z,18.80
2018-03-27T22:22:01.209Z,18.90
2018-03-27T22:24:28.196Z,18.90
2018-03-27T22:26:54.418Z,18.80
2018-03-27T22:29:20.665Z,18.90
2018-03-27T22:31:46.918Z,18.80
2018-03-27T22:34:13.191Z,18.80
2018-03-27T22:36:39.420Z,18.80
2018-03-27T22:39:05.650Z,18.80
2018-03-27T22:41:32.977Z,18.80
2018-03-27T22:43:59.208Z,18.80
2018-03-27T22:46:25.473Z,18.80
2018-03-27T22:48:51.712Z,18.80
2018-03-27T22:51:18.128Z,18.80
2018-03-27T22:53:44.415Z,18.80
2018-03-27T22:56:10.635Z,18.80
2018-03-27T22:58:36.904Z,18.80
2018-03-27T23:01:03.124Z,18.80
2018-03-27T23:03:29.376Z,18.80
2018-03-27T23:05:55.637Z,18.80
2018-03-27T23:08:21.883Z,18.80
2018-03-27T23:10:48.858Z,18.80
2018-03-27T23:13:15.082Z,18.80
2018-03-27T23:15:41.311Z,18.80
2018-03-27T23:18:07.539Z,18.80
2018-03-27T23:20:33.777Z,18.80
2018-03-27T23:23:00.061Z,18.80
2018-03-27T23:25:26.597Z,18.80
2018-03-27T23:27:52.862Z,18.80
